Time;durP1;ratioP1;P1;durP2;ratioP2;P2;SDS_P1;SDS_P2;PMS_P1;PMS_P2;Temp;Humidity;BMP_temperature;BMP_pressure;BME280_temperature;BME280_humidity;BME280_pressure;Samples;Min_cycle;Max_cycle;Signal;HPM_P1;HPM_P2
2023/10/09 00:02:10;;;;;;;44.50;10.10;;;;;;;;;;5117323;27;20050;-69
2023/10/09 00:04:38;;;;;;;31.25;9.57;;;;;;;;;;5116831;27;20459;-71
2023/10/09 00:07:08;;;;;;;37.70;8.85;;;;;;;;;;5136317;27;20054;-70
2023/10/09 00:09:46;;;;;;;38.60;9.63;;;;;;;;;;5136149;27;20054;-70
2023/10/09 00:12:12;;;;;;;40.28;9.55;;;;;;;;;;5136492;27;20051;-70
2023/10/09 00:14:40;;;;;;;38.00;10.27;;;;;;;;;;5135206;27;20077;-70
2023/10/09 00:19:38;;;;;;;43.50;10.05;;;;;;;;;;5135309;27;20103;-70
2023/10/09 00:22:04;;;;;;;38.88;10.45;;;;;;;;;;5117838;27;20047;-70
2023/10/09 00:24:34;;;;;;;44.88;10.55;;;;;;;;;;5116759;27;20043;-71
2023/10/09 00:27:12;;;;;;;44.67;12.13;;;;;;;;;;5117701;27;20070;-70
2023/10/09 00:29:44;;;;;;;40.13;11.15;;;;;;;;;;5085620;27;20043;-69
2023/10/09 00:32:15;;;;;;;46.00;12.77;;;;;;;;;;5134877;27;20512;-71
2023/10/09 00:34:42;;;;;;;50.83;12.88;;;;;;;;;;5135620;27;20356;-71
2023/10/09 00:37:28;;;;;;;50.72;13.38;;;;;;;;;;5116822;27;20059;-70
2023/10/09 00:39:57;;;;;;;50.58;13.00;;;;;;;;;;5100393;27;20177;-70
2023/10/09 00:42:32;;;;;;;55.42;13.43;;;;;;;;;;5134842;27;20039;-69
2023/10/09 00:45:07;;;;;;;56.58;13.73;;;;;;;;;;5116967;27;20356;-71
2023/10/09 00:47:34;;;;;;;59.83;13.70;;;;;;;;;;5135226;27;20498;-70
2023/10/09 00:50:20;;;;;;;56.35;13.77;;;;;;;;;;5112661;28;20066;-69
2023/10/09 00:53:01;;;;;;;53.67;13.25;;;;;;;;;;5112727;28;20055;-70
2023/10/09 00:55:37;;;;;;;51.80;13.77;;;;;;;;;;5113168;28;20052;-69
2023/10/09 00:58:09;;;;;;;61.20;14.95;;;;;;;;;;5113556;28;20048;-71
2023/10/09 01:00:45;;;;;;;61.33;14.77;;;;;;;;;;5113982;28;20058;-70
2023/10/09 01:05:52;;;;;;;56.08;15.45;;;;;;;;;;5114071;28;20055;-71
2023/10/09 01:08:28;;;;;;;68.10;15.73;;;;;;;;;;5114027;28;20087;-72
2023/10/09 01:11:08;;;;;;;69.07;15.60;;;;;;;;;;5096801;28;20047;-71
2023/10/09 01:16:31;;;;;;;55.10;15.88;;;;;;;;;;5097076;28;20052;-71
2023/10/09 01:18:57;;;;;;;60.10;16.88;;;;;;;;;;5114127;28;20043;-72
2023/10/09 01:21:25;;;;;;;64.95;16.67;;;;;;;;;;5113911;28;20044;-70
2023/10/09 01:24:03;;;;;;;61.22;16.33;;;;;;;;;;5113969;28;20091;-70
2023/10/09 01:26:40;;;;;;;67.15;16.55;;;;;;;;;;5114060;28;20140;-73
2023/10/09 01:29:10;;;;;;;65.70;16.38;;;;;;;;;;5116218;28;20144;-71
2023/10/09 01:31:44;;;;;;;72.35;17.85;;;;;;;;;;5118338;28;20043;-70
2023/10/09 01:34:12;;;;;;;74.60;16.95;;;;;;;;;;5117860;28;20051;-70
2023/10/09 01:36:39;;;;;;;68.53;17.10;;;;;;;;;;5116678;28;20057;-71
2023/10/09 01:39:21;;;;;;;64.15;17.45;;;;;;;;;;5118029;28;20052;-70
2023/10/09 01:41:49;;;;;;;66.72;17.35;;;;;;;;;;5116952;28;20040;-71
2023/10/09 01:44:16;;;;;;;68.18;18.40;;;;;;;;;;5117870;28;20047;-70
2023/10/09 01:46:45;;;;;;;68.30;18.45;;;;;;;;;;5116911;28;20055;-71
2023/10/09 01:49:17;;;;;;;68.38;18.55;;;;;;;;;;5117822;28;20189;-71
2023/10/09 01:52:03;;;;;;;75.45;19.58;;;;;;;;;;5089430;27;20431;-71
2023/10/09 01:54:39;;;;;;;72.30;21.10;;;;;;;;;;5089918;28;20519;-71
2023/10/09 01:57:11;;;;;;;89.32;21.60;;;;;;;;;;5089657;28;20052;-71
2023/10/09 01:59:38;;;;;;;81.70;20.80;;;;;;;;;;5089476;28;20058;-71
2023/10/09 02:02:14;;;;;;;75.72;21.02;;;;;;;;;;5087622;28;20048;-72
2023/10/09 02:04:43;;;;;;;78.20;20.90;;;;;;;;;;5088573;28;20484;-72
2023/10/09 02:07:09;;;;;;;90.30;21.40;;;;;;;;;;5105602;28;20056;-70
2023/10/09 02:09:44;;;;;;;90.65;22.50;;;;;;;;;;5051567;28;20048;-71
2023/10/09 02:12:10;;;;;;;95.20;23.63;;;;;;;;;;5068171;28;20052;-70
2023/10/09 02:14:41;;;;;;;81.60;23.92;;;;;;;;;;5069053;28;20080;-71
2023/10/09 02:17:29;;;;;;;92.97;24.23;;;;;;;;;;5068901;28;20056;-71
2023/10/09 02:19:57;;;;;;;97.28;23.33;;;;;;;;;;5101423;28;20488;-70
2023/10/09 02:22:26;;;;;;;95.03;25.05;;;;;;;;;;5069486;28;20060;-71
2023/10/09 02:24:57;;;;;;;96.38;25.17;;;;;;;;;;5069022;28;20059;-71
2023/10/09 02:30:15;;;;;;;95.47;26.02;;;;;;;;;;5068864;28;20128;-71
2023/10/09 02:32:48;;;;;;;101.18;26.67;;;;;;;;;;5051547;28;20087;-70
2023/10/09 02:35:28;;;;;;;103.07;25.77;;;;;;;;;;5051211;28;20084;-72
2023/10/09 02:37:54;;;;;;;98.30;26.50;;;;;;;;;;5068849;28;20063;-70
2023/10/09 02:40:26;;;;;;;103.57;26.90;;;;;;;;;;5068605;28;20041;-72
2023/10/09 02:42:52;;;;;;;101.15;26.45;;;;;;;;;;5069150;28;20061;-71
2023/10/09 02:45:18;;;;;;;105.63;26.58;;;;;;;;;;5051746;28;20507;-70
2023/10/09 02:47:48;;;;;;;107.85;26.15;;;;;;;;;;5077637;28;20047;-71
2023/10/09 02:50:21;;;;;;;102.82;27.80;;;;;;;;;;5088736;28;20056;-71
2023/10/09 02:53:00;;;;;;;119.18;28.73;;;;;;;;;;5089153;28;20052;-70
2023/10/09 02:55:27;;;;;;;108.32;29.13;;;;;;;;;;5088708;28;20044;-70
2023/10/09 02:58:05;;;;;;;;;;;;;;;;;;5074151;28;20417;-68
2023/10/09 03:00:32;;;;;;;119.38;27.83;;;;;;;;;;5067940;28;20054;-72
2023/10/09 03:02:58;;;;;;;97.45;27.38;;;;;;;;;;5056229;28;20079;-71
2023/10/09 03:05:27;;;;;;;118.47;29.98;;;;;;;;;;5054734;28;20040;-71
2023/10/09 03:07:54;;;;;;;119.15;28.92;;;;;;;;;;5053130;28;20051;-70
2023/10/09 03:10:22;;;;;;;108.57;31.20;;;;;;;;;;5053430;28;20045;-70
2023/10/09 03:12:52;;;;;;;114.07;29.38;;;;;;;;;;5054638;28;20533;-71
2023/10/09 03:15:20;;;;;;;120.90;31.98;;;;;;;;;;5055125;28;20072;-72
2023/10/09 03:17:47;;;;;;;120.13;33.10;;;;;;;;;;5053646;28;20132;-72
2023/10/09 03:20:14;;;;;;;129.70;32.25;;;;;;;;;;5054156;28;20497;-71
2023/10/09 03:22:40;;;;;;;136.23;31.98;;;;;;;;;;5054375;28;20091;-71
2023/10/09 03:25:16;;;;;;;129.18;31.50;;;;;;;;;;5054188;28;20044;-71
2023/10/09 03:27:45;;;;;;;126.20;32.72;;;;;;;;;;5053311;28;20067;-71
2023/10/09 03:30:16;;;;;;;131.13;33.67;;;;;;;;;;5053038;28;20037;-71
2023/10/09 03:32:42;;;;;;;135.60;33.92;;;;;;;;;;5054498;28;20551;-70
2023/10/09 03:35:11;;;;;;;146.32;33.80;;;;;;;;;;5052749;28;20053;-71
2023/10/09 03:37:39;;;;;;;122.47;32.13;;;;;;;;;;5054001;28;20049;-70
2023/10/09 03:40:15;;;;;;;140.57;32.55;;;;;;;;;;5086301;28;20114;-71
2023/10/09 03:42:42;;;;;;;135.90;35.17;;;;;;;;;;5053112;28;20489;-70
2023/10/09 03:45:18;;;;;;;145.48;33.58;;;;;;;;;;5052935;28;20056;-70
2023/10/09 03:47:44;;;;;;;137.48;34.53;;;;;;;;;;5062131;28;20040;-69
2023/10/09 03:50:26;;;;;;;149.63;35.90;;;;;;;;;;5106372;28;20052;-71
2023/10/09 03:52:53;;;;;;;143.93;37.38;;;;;;;;;;5074271;28;20454;-71
2023/10/09 03:55:21;;;;;;;150.13;38.33;;;;;;;;;;5073025;28;20156;-71
2023/10/09 03:57:48;;;;;;;146.00;38.50;;;;;;;;;;5074558;28;20041;-71
2023/10/09 04:00:15;;;;;;;164.40;40.38;;;;;;;;;;5072841;28;20060;-72
2023/10/09 04:02:42;;;;;;;162.18;39.75;;;;;;;;;;5056444;28;20064;-71
2023/10/09 04:05:08;;;;;;;153.65;39.65;;;;;;;;;;5073631;28;20052;-70
2023/10/09 04:07:34;;;;;;;173.50;41.15;;;;;;;;;;5076234;28;20048;-69
2023/10/09 04:10:32;;;;;;;166.40;42.30;;;;;;;;;;5074738;28;20040;-74
2023/10/09 04:12:52;;;;;;;172.88;39.55;;;;;;;;;;5073845;28;20154;-70
2023/10/09 04:15:23;;;;;;;159.15;42.20;;;;;;;;;;5074211;28;20044;-70
2023/10/09 04:17:51;;;;;;;172.80;43.45;;;;;;;;;;5057811;28;20120;-71
2023/10/09 04:22:50;;;;;;;164.07;41.50;;;;;;;;;;5066661;28;20053;-71
2023/10/09 04:25:25;;;;;;;170.27;42.78;;;;;;;;;;5073163;28;20131;-71
2023/10/09 04:27:59;;;;;;;165.90;42.13;;;;;;;;;;5073711;28;20040;-71
2023/10/09 04:30:26;;;;;;;175.65;42.45;;;;;;;;;;5053412;28;20559;-71
2023/10/09 04:32:55;;;;;;;;;;;;;;;;;;5054890;28;20059;-70
2023/10/09 04:35:26;;;;;;;160.40;43.22;;;;;;;;;;5052728;28;19921;-71
2023/10/09 04:37:59;;;;;;;168.90;41.65;;;;;;;;;;5051546;28;20076;-70
2023/10/09 04:40:41;;;;;;;161.75;42.72;;;;;;;;;;5064637;28;20063;-70
2023/10/09 04:43:09;;;;;;;162.80;41.20;;;;;;;;;;5071582;28;20064;-70
2023/10/09 04:48:38;;;;;;;167.75;41.20;;;;;;;;;;5056313;28;20059;-71
2023/10/09 04:51:21;;;;;;;170.02;42.50;;;;;;;;;;5071430;28;20118;-72
2023/10/09 04:54:00;;;;;;;162.30;42.92;;;;;;;;;;5073396;28;20081;-70
2023/10/09 04:56:31;;;;;;;177.57;41.08;;;;;;;;;;5095221;28;20061;-70
2023/10/09 04:59:03;;;;;;;161.60;42.30;;;;;;;;;;5053081;28;20202;-71
2023/10/09 05:01:46;;;;;;;151.63;40.80;;;;;;;;;;5052587;28;20119;-71
2023/10/09 05:06:57;;;;;;;156.23;41.45;;;;;;;;;;5052785;28;20045;-70
2023/10/09 05:09:24;;;;;;;175.10;43.67;;;;;;;;;;5051471;28;20114;-71
2023/10/09 05:11:53;;;;;;;154.52;43.13;;;;;;;;;;5052355;28;20049;-70
2023/10/09 05:14:26;;;;;;;155.35;40.25;;;;;;;;;;5068981;28;20056;-70
2023/10/09 05:17:01;;;;;;;150.77;39.33;;;;;;;;;;5072451;28;20059;-70
2023/10/09 05:19:42;;;;;;;157.93;39.72;;;;;;;;;;5072088;28;20048;-72
2023/10/09 05:22:36;;;;;;;136.73;36.65;;;;;;;;;;5054309;28;20488;-70
2023/10/09 05:25:04;;;;;;;149.38;40.00;;;;;;;;;;5054255;28;20049;-70
2023/10/09 05:27:45;;;;;;;149.57;39.28;;;;;;;;;;5059192;28;20508;-70
2023/10/09 05:30:24;;;;;;;131.77;35.03;;;;;;;;;;5054613;28;20047;-75
2023/10/09 05:33:27;;;;;;;136.70;37.15;;;;;;;;;;5053529;28;20053;-71
2023/10/09 05:36:05;;;;;;;124.60;35.87;;;;;;;;;;5050802;28;20485;-71
2023/10/09 05:38:35;;;;;;;137.45;35.90;;;;;;;;;;5051032;28;20057;-71
2023/10/09 05:41:31;;;;;;;123.90;34.05;;;;;;;;;;5051105;28;20083;-70
2023/10/09 05:47:22;;;;;;;128.07;34.33;;;;;;;;;;5022292;28;20140;-70
2023/10/09 05:49:46;;;;;;;119.35;33.60;;;;;;;;;;5071408;28;20795;-71
2023/10/09 05:52:32;;;;;;;121.30;34.42;;;;;;;;;;5051480;28;20061;-70
2023/10/09 06:03:56;;;;;;;115.85;37.78;;;;;;;;;;5051863;28;20045;-71
2023/10/09 06:14:04;;;;;;;101.13;30.67;;;;;;;;;;5048435;28;20362;-70
2023/10/09 06:24:42;;;;;;;84.97;26.95;;;;;;;;;;5061636;28;20060;-69
2023/10/09 06:27:24;;;;;;;87.47;26.67;;;;;;;;;;5071430;28;20049;-70
2023/10/09 06:34:51;;;;;;;75.47;25.42;;;;;;;;;;5071194;28;20551;-70
2023/10/09 06:42:43;;;;;;;76.05;23.02;;;;;;;;;;5054979;28;20099;-70
2023/10/09 06:45:20;;;;;;;78.05;22.77;;;;;;;;;;5053758;28;20481;-70
2023/10/09 06:47:55;;;;;;;64.60;21.88;;;;;;;;;;5054724;28;20167;-69
2023/10/09 06:52:58;;;;;;;;;;;;;;;;;;5056042;28;20049;-70
2023/10/09 06:55:37;;;;;;;66.65;20.48;;;;;;;;;;5055673;28;19972;-74
2023/10/09 06:58:09;;;;;;;62.70;19.48;;;;;;;;;;5037697;28;20397;-69
2023/10/09 07:00:54;;;;;;;61.70;19.45;;;;;;;;;;5054732;28;20045;-70
2023/10/09 07:03:29;;;;;;;61.80;18.15;;;;;;;;;;5055298;28;20059;-69
2023/10/09 07:06:23;;;;;;;60.45;17.85;;;;;;;;;;5055217;28;20049;-70
2023/10/09 07:16:57;;;;;;;51.50;16.73;;;;;;;;;;5054276;28;20049;-70
2023/10/09 07:19:57;;;;;;;54.97;15.98;;;;;;;;;;5054409;28;20405;-69
2023/10/09 07:24:57;;;;;;;48.15;15.35;;;;;;;;;;5066988;28;20255;-69
2023/10/09 07:30:35;;;;;;;52.78;14.77;;;;;;;;;;5073761;28;20044;-71
2023/10/09 07:33:04;;;;;;;43.00;14.70;;;;;;;;;;5074249;28;20048;-69
2023/10/09 07:38:10;;;;;;;43.33;14.50;;;;;;;;;;5074206;28;20095;-70
2023/10/09 07:43:45;;;;;;;44.70;13.65;;;;;;;;;;5053860;28;20048;-69
2023/10/09 07:46:32;;;;;;;43.72;13.25;;;;;;;;;;5064892;28;20400;-69
2023/10/09 07:49:00;;;;;;;43.88;13.15;;;;;;;;;;5053518;28;20049;-69
2023/10/09 07:51:32;;;;;;;45.67;13.05;;;;;;;;;;5052850;28;20060;-69
2023/10/09 07:54:08;;;;;;;43.20;13.30;;;;;;;;;;5054217;28;20135;-70
2023/10/09 07:56:41;;;;;;;41.97;12.68;;;;;;;;;;5053655;28;20045;-71
2023/10/09 07:59:10;;;;;;;37.17;12.65;;;;;;;;;;5053835;28;20127;-69
2023/10/09 08:01:54;;;;;;;39.85;13.25;;;;;;;;;;5053938;28;20485;-70
2023/10/09 08:04:37;;;;;;;37.22;12.45;;;;;;;;;;5054724;28;20049;-69
2023/10/09 08:08:17;;;;;;;35.00;12.27;;;;;;;;;;5054195;28;20059;-69
2023/10/09 08:17:53;;;;;;;40.78;12.23;;;;;;;;;;5053431;28;20053;-70
2023/10/09 08:20:26;;;;;;;34.75;11.80;;;;;;;;;;5054731;28;20053;-70
2023/10/09 08:22:55;;;;;;;36.47;12.27;;;;;;;;;;5053272;28;20505;-70
2023/10/09 08:25:31;;;;;;;37.25;12.30;;;;;;;;;;5071496;28;20059;-70
2023/10/09 08:30:50;;;;;;;39.15;12.60;;;;;;;;;;5073361;28;20053;-70
2023/10/09 08:35:55;;;;;;;37.97;12.70;;;;;;;;;;5071421;28;20048;-70
2023/10/09 08:38:24;;;;;;;41.65;12.30;;;;;;;;;;5072281;28;20048;-68
2023/10/09 08:40:58;;;;;;;39.50;12.18;;;;;;;;;;5071415;28;20567;-70
2023/10/09 08:43:24;;;;;;;38.65;12.18;;;;;;;;;;5072872;28;20055;-70
2023/10/09 08:45:53;;;;;;;41.65;12.52;;;;;;;;;;5072569;28;20048;-72
2023/10/09 08:48:21;;;;;;;36.78;11.55;;;;;;;;;;5071772;28;20377;-69
2023/10/09 08:50:49;;;;;;;37.35;11.25;;;;;;;;;;5072386;28;20048;-69
2023/10/09 08:53:16;;;;;;;35.35;11.25;;;;;;;;;;5054304;28;20401;-71
2023/10/09 08:55:43;;;;;;;32.42;12.07;;;;;;;;;;5052846;28;20045;-70
2023/10/09 08:58:52;;;;;;;37.55;10.95;;;;;;;;;;5051615;28;20099;-69
2023/10/09 09:01:00;;;;;;;38.42;12.02;;;;;;;;;;5045868;28;20136;-69
2023/10/09 09:03:27;;;;;;;41.65;11.95;;;;;;;;;;5052623;28;20056;-69
2023/10/09 09:06:11;;;;;;;34.83;10.90;;;;;;;;;;5050825;28;20441;-69
2023/10/09 09:08:38;;;;;;;35.95;11.50;;;;;;;;;;5051546;28;20242;-70
2023/10/09 09:11:11;;;;;;;41.58;11.48;;;;;;;;;;5052764;28;20129;-72
2023/10/09 09:13:49;;;;;;;38.83;11.75;;;;;;;;;;5052539;28;20072;-71
2023/10/09 09:16:16;;;;;;;36.70;11.48;;;;;;;;;;5051184;28;20504;-70
2023/10/09 09:18:45;;;;;;;;;;;;;;;;;;5051814;28;20099;-70
2023/10/09 09:21:24;;;;;;;40.17;11.85;;;;;;;;;;5084891;28;19966;-71
2023/10/09 09:24:03;;;;;;;32.83;10.13;;;;;;;;;;5050835;28;20056;-70
2023/10/09 09:26:44;;;;;;;39.22;11.90;;;;;;;;;;5051186;28;20052;-70
2023/10/09 09:29:11;;;;;;;38.45;11.60;;;;;;;;;;5068798;28;20054;-71
2023/10/09 09:31:37;;;;;;;39.08;12.63;;;;;;;;;;5072017;28;20044;-70
2023/10/09 09:34:12;;;;;;;35.78;11.40;;;;;;;;;;5054858;28;20098;-69
2023/10/09 09:36:53;;;;;;;37.22;11.45;;;;;;;;;;5072155;28;20052;-70
2023/10/09 09:39:26;;;;;;;48.45;11.43;;;;;;;;;;5071132;28;20053;-70
2023/10/09 09:41:52;;;;;;;36.15;12.20;;;;;;;;;;5072040;28;20056;-69
2023/10/09 09:44:21;;;;;;;42.40;10.93;;;;;;;;;;5071216;28;20050;-69
2023/10/09 09:46:48;;;;;;;37.88;10.45;;;;;;;;;;5105054;28;20056;-69
2023/10/09 09:49:21;;;;;;;40.22;11.43;;;;;;;;;;5070999;28;20048;-69
2023/10/09 09:51:47;;;;;;;36.97;11.05;;;;;;;;;;5072204;28;20096;-69
2023/10/09 09:54:17;;;;;;;43.15;11.55;;;;;;;;;;5071731;28;20119;-69
2023/10/09 09:56:54;;;;;;;46.35;11.55;;;;;;;;;;5072113;28;20048;-69
2023/10/09 09:59:27;;;;;;;39.15;11.07;;;;;;;;;;5071192;28;20049;-69
2023/10/09 10:02:00;;;;;;;36.88;11.57;;;;;;;;;;5065639;28;20056;-71
2023/10/09 10:04:28;;;;;;;32.42;11.35;;;;;;;;;;5051751;28;20136;-70
2023/10/09 10:06:55;;;;;;;29.13;10.55;;;;;;;;;;5051356;28;20044;-70
2023/10/09 10:09:41;;;;;;;34.72;10.00;;;;;;;;;;5050891;28;20049;-70
2023/10/09 10:12:10;;;;;;;38.50;10.27;;;;;;;;;;5052874;28;20037;-69
2023/10/09 10:14:52;;;;;;;38.15;10.70;;;;;;;;;;5055396;28;20064;-70
2023/10/09 10:17:21;;;;;;;41.03;10.40;;;;;;;;;;5088684;28;20052;-69
2023/10/09 10:22:47;;;;;;;32.80;10.20;;;;;;;;;;5055361;28;20405;-69
2023/10/09 10:25:41;;;;;;;29.02;9.10;;;;;;;;;;5071541;28;20358;-68
2023/10/09 10:28:28;;;;;;;36.20;8.70;;;;;;;;;;5075275;28;20057;-69
2023/10/09 10:30:55;;;;;;;29.85;9.32;;;;;;;;;;5075411;28;20040;-74
2023/10/09 10:33:22;;;;;;;;;;;;;;;;;;5074702;28;20095;-70
2023/10/09 10:38:42;;;;;;;33.05;8.70;;;;;;;;;;5074084;28;20143;-70
2023/10/09 10:41:12;;;;;;;30.05;8.13;;;;;;;;;;5057477;28;20475;-70
2023/10/09 10:43:47;;;;;;;24.73;8.15;;;;;;;;;;5073842;28;20048;-70
2023/10/09 10:46:15;;;;;;;28.73;7.57;;;;;;;;;;5073968;28;20036;-70
2023/10/09 10:48:46;;;;;;;23.88;8.27;;;;;;;;;;5075249;28;20052;-68
2023/10/09 10:51:15;;;;;;;26.08;7.28;;;;;;;;;;5074371;28;20067;-68
2023/10/09 10:56:52;;;;;;;29.67;7.88;;;;;;;;;;5055355;28;20057;-69
2023/10/09 10:59:28;;;;;;;29.30;7.38;;;;;;;;;;5054714;28;20273;-68
2023/10/09 11:07:16;;;;;;;29.13;8.02;;;;;;;;;;5054502;28;20049;-69
2023/10/09 11:15:46;;;;;;;28.20;8.40;;;;;;;;;;5056181;28;20437;-71
2023/10/09 11:18:20;;;;;;;28.60;7.85;;;;;;;;;;5053066;28;20124;-69
2023/10/09 11:20:57;;;;;;;27.35;7.30;;;;;;;;;;5054760;28;20140;-68
2023/10/09 11:28:57;;;;;;;23.80;7.40;;;;;;;;;;5053450;28;20057;-69
2023/10/09 11:31:24;;;;;;;35.50;8.30;;;;;;;;;;5054067;28;20310;-70
2023/10/09 11:33:53;;;;;;;28.08;7.47;;;;;;;;;;5062084;28;20175;-71
2023/10/09 11:36:34;;;;;;;33.15;8.30;;;;;;;;;;5072697;28;20040;-71
2023/10/09 11:39:31;;;;;;;25.98;8.10;;;;;;;;;;5073937;28;20182;-71
2023/10/09 11:42:07;;;;;;;24.92;7.00;;;;;;;;;;5073655;28;20058;-71
2023/10/09 11:44:39;;;;;;;33.85;8.07;;;;;;;;;;5062191;28;20369;-71
2023/10/09 11:47:23;;;;;;;26.17;7.55;;;;;;;;;;5053121;28;20086;-75
2023/10/09 11:52:35;;;;;;;27.30;7.65;;;;;;;;;;5053721;28;20106;-70
2023/10/09 11:55:02;;;;;;;29.15;7.35;;;;;;;;;;5061564;28;20040;-70
2023/10/09 11:57:33;;;;;;;22.88;7.15;;;;;;;;;;5072657;28;20416;-70
2023/10/09 12:02:49;;;;;;;24.35;7.43;;;;;;;;;;5081677;28;20052;-69
2023/10/09 12:05:16;;;;;;;27.48;7.20;;;;;;;;;;5053433;28;20041;-70
2023/10/09 12:07:46;;;;;;;25.17;6.72;;;;;;;;;;5053954;28;20132;-70
2023/10/09 12:10:15;;;;;;;27.92;7.28;;;;;;;;;;5056363;28;20037;-70
2023/10/09 12:12:46;;;;;;;24.63;7.07;;;;;;;;;;5055886;28;20051;-69
2023/10/09 12:15:17;;;;;;;21.33;7.25;;;;;;;;;;5072358;28;20447;-69
2023/10/09 12:17:46;;;;;;;22.23;7.10;;;;;;;;;;5051581;28;20049;-69
2023/10/09 12:20:29;;;;;;;22.10;7.55;;;;;;;;;;5053335;28;20051;-70
2023/10/09 12:22:57;;;;;;;27.08;7.18;;;;;;;;;;5053587;28;20049;-70
2023/10/09 12:25:24;;;;;;;21.50;6.93;;;;;;;;;;5052981;28;20472;-70
2023/10/09 12:27:50;;;;;;;33.92;7.18;;;;;;;;;;5052226;28;20063;-70
2023/10/09 12:30:16;;;;;;;21.98;6.50;;;;;;;;;;5053022;28;20048;-69
2023/10/09 12:32:43;;;;;;;17.08;6.00;;;;;;;;;;5052177;28;20492;-69
2023/10/09 12:35:17;;;;;;;21.42;6.38;;;;;;;;;;5051842;28;20492;-69
2023/10/09 12:37:44;;;;;;;22.52;5.88;;;;;;;;;;5053397;28;20052;-70
2023/10/09 12:40:10;;;;;;;;;;;;;;;;;;5052231;28;20056;-69
2023/10/09 12:42:37;;;;;;;19.08;6.07;;;;;;;;;;5052551;28;19920;-70
2023/10/09 12:45:09;;;;;;;25.42;6.78;;;;;;;;;;5053323;28;20056;-72
2023/10/09 12:47:37;;;;;;;17.15;5.55;;;;;;;;;;5063047;28;20052;-70
2023/10/09 12:50:09;;;;;;;19.35;5.97;;;;;;;;;;5071361;28;20044;-70
2023/10/09 12:52:37;;;;;;;22.10;5.82;;;;;;;;;;5063727;28;20113;-71
2023/10/09 12:55:07;;;;;;;16.50;5.38;;;;;;;;;;5072916;28;20040;-70
2023/10/09 12:57:33;;;;;;;16.67;4.20;;;;;;;;;;5073047;28;20060;-70
2023/10/09 12:59:59;;;;;;;16.27;4.40;;;;;;;;;;5073519;28;20048;-70
2023/10/09 13:02:28;;;;;;;16.30;3.88;;;;;;;;;;5073102;28;20040;-68
2023/10/09 13:04:55;;;;;;;15.48;4.20;;;;;;;;;;5039471;28;20044;-71
2023/10/09 13:07:23;;;;;;;;;;;;;;;;;;5073110;28;20119;-70
2023/10/09 13:12:55;;;;;;;20.58;4.95;;;;;;;;;;5027270;28;20042;-72
2023/10/09 13:15:22;;;;;;;18.63;5.55;;;;;;;;;;5044666;28;20057;-72
2023/10/09 13:17:48;;;;;;;18.90;5.78;;;;;;;;;;5035118;28;20124;-72
2023/10/09 13:20:14;;;;;;;19.58;4.93;;;;;;;;;;5052185;28;20048;-71
2023/10/09 13:22:41;;;;;;;16.90;4.78;;;;;;;;;;5050879;28;20095;-72
2023/10/09 13:25:24;;;;;;;17.15;4.70;;;;;;;;;;5052566;28;20443;-72
2023/10/09 13:27:50;;;;;;;20.30;5.00;;;;;;;;;;5052505;28;20059;-71
2023/10/09 13:30:21;;;;;;;18.95;5.25;;;;;;;;;;5051295;28;20041;-71
2023/10/09 13:32:51;;;;;;;21.90;4.95;;;;;;;;;;5052217;28;20049;-70
2023/10/09 13:35:18;;;;;;;27.10;5.82;;;;;;;;;;5052223;28;20049;-71
2023/10/09 13:38:09;;;;;;;16.67;4.82;;;;;;;;;;5052598;28;20041;-70
2023/10/09 13:40:37;;;;;;;20.15;4.25;;;;;;;;;;5052136;28;20492;-71
2023/10/09 13:43:05;;;;;;;17.17;3.63;;;;;;;;;;5052859;28;20099;-72
2023/10/09 13:45:33;;;;;;;13.10;3.20;;;;;;;;;;5052193;28;20053;-71
2023/10/09 13:48:02;;;;;;;16.40;3.55;;;;;;;;;;5051476;28;20044;-69
2023/10/09 13:50:32;;;;;;;14.13;3.25;;;;;;;;;;5051531;28;20128;-70
2023/10/09 13:52:59;;;;;;;12.73;2.92;;;;;;;;;;5051958;28;20052;-69
2023/10/09 13:55:43;;;;;;;18.23;3.08;;;;;;;;;;5063646;28;20120;-71
2023/10/09 13:58:13;;;;;;;15.20;3.38;;;;;;;;;;5057330;28;20095;-71
2023/10/09 14:00:42;;;;;;;13.90;3.00;;;;;;;;;;5056960;28;20170;-70
2023/10/09 14:03:12;;;;;;;15.35;3.22;;;;;;;;;;5051268;28;20531;-71
2023/10/09 14:05:51;;;;;;;12.13;3.08;;;;;;;;;;5062959;28;20263;-71
2023/10/09 14:08:19;;;;;;;15.15;3.40;;;;;;;;;;5052308;28;20037;-71
2023/10/09 14:10:48;;;;;;;24.77;3.42;;;;;;;;;;5050197;28;20095;-71
2023/10/09 14:13:25;;;;;;;14.50;3.35;;;;;;;;;;5052400;28;20052;-72
2023/10/09 14:15:54;;;;;;;17.98;3.60;;;;;;;;;;5051713;28;20412;-71
2023/10/09 14:18:20;;;;;;;13.88;4.03;;;;;;;;;;5068897;28;20493;-71
2023/10/09 14:20:46;;;;;;;18.95;4.25;;;;;;;;;;5104177;28;20048;-70
2023/10/09 14:23:20;;;;;;;19.65;4.50;;;;;;;;;;5071836;28;20040;-71
2023/10/09 14:25:49;;;;;;;19.02;4.70;;;;;;;;;;5070512;28;20056;-71
2023/10/09 14:28:18;;;;;;;18.23;4.15;;;;;;;;;;5071413;28;20055;-72
2023/10/09 14:30:48;;;;;;;21.38;4.57;;;;;;;;;;5037865;28;20052;-70
2023/10/09 14:33:22;;;;;;;17.42;4.93;;;;;;;;;;5070211;28;20087;-70
2023/10/09 14:35:48;;;;;;;19.95;3.92;;;;;;;;;;5034827;28;20482;-72
2023/10/09 14:38:15;;;;;;;14.20;3.90;;;;;;;;;;5051287;28;20469;-70
2023/10/09 14:40:45;;;;;;;18.00;4.05;;;;;;;;;;5050698;28;20132;-71
2023/10/09 14:43:21;;;;;;;16.63;3.83;;;;;;;;;;5050759;28;20048;-71
2023/10/09 14:45:53;;;;;;;16.35;3.65;;;;;;;;;;5051701;28;20106;-71
2023/10/09 14:48:25;;;;;;;16.17;3.97;;;;;;;;;;5034537;28;20106;-71
2023/10/09 14:50:57;;;;;;;20.58;4.32;;;;;;;;;;5050331;28;20068;-70
2023/10/09 14:53:27;;;;;;;15.65;3.90;;;;;;;;;;5050534;28;20084;-70
2023/10/09 14:56:01;;;;;;;11.13;3.47;;;;;;;;;;5064532;28;20059;-70
2023/10/09 14:58:29;;;;;;;13.88;3.92;;;;;;;;;;5071585;28;20053;-71
2023/10/09 15:00:55;;;;;;;13.18;3.30;;;;;;;;;;5063570;28;20049;-70
2023/10/09 15:03:21;;;;;;;17.13;3.75;;;;;;;;;;5053856;28;20048;-72
2023/10/09 15:05:48;;;;;;;18.95;4.25;;;;;;;;;;5053598;28;20049;-70
2023/10/09 15:08:14;;;;;;;14.70;3.55;;;;;;;;;;5063567;28;20040;-71
2023/10/09 15:10:56;;;;;;;18.00;4.10;;;;;;;;;;5074427;28;20127;-70
2023/10/09 15:13:28;;;;;;;21.77;4.05;;;;;;;;;;5058040;28;20053;-70
2023/10/09 15:15:55;;;;;;;17.02;4.10;;;;;;;;;;5055314;28;20809;-70
2023/10/09 15:18:21;;;;;;;;;;;;;;;;;;5054947;28;20048;-71
2023/10/09 15:20:48;;;;;;;16.80;4.00;;;;;;;;;;5086850;28;20492;-72
2023/10/09 15:23:14;;;;;;;21.70;5.15;;;;;;;;;;5053258;28;20440;-71
2023/10/09 15:25:44;;;;;;;18.50;4.60;;;;;;;;;;5054839;28;20516;-71
2023/10/09 15:28:12;;;;;;;17.30;4.53;;;;;;;;;;5054478;28;20049;-70
2023/10/09 15:30:38;;;;;;;23.83;4.85;;;;;;;;;;5053696;28;20116;-71
2023/10/09 15:33:08;;;;;;;17.30;4.65;;;;;;;;;;5055280;28;20041;-69
2023/10/09 15:35:34;;;;;;;22.60;4.72;;;;;;;;;;5052835;28;20040;-69
2023/10/09 15:38:04;;;;;;;28.58;5.15;;;;;;;;;;5053678;28;20520;-71
2023/10/09 15:40:34;;;;;;;21.08;4.82;;;;;;;;;;5054328;28;20045;-70
2023/10/09 15:43:00;;;;;;;18.15;4.68;;;;;;;;;;5068458;28;20056;-70
2023/10/09 15:45:28;;;;;;;20.35;4.82;;;;;;;;;;5053809;28;20595;-71
2023/10/09 15:47:55;;;;;;;17.00;5.22;;;;;;;;;;5053771;28;20043;-70
2023/10/09 15:50:25;;;;;;;23.88;4.95;;;;;;;;;;5053439;28;20480;-71
2023/10/09 15:52:55;;;;;;;18.73;5.13;;;;;;;;;;5054009;28;20041;-70
2023/10/09 15:55:24;;;;;;;18.88;4.68;;;;;;;;;;5064390;28;20495;-71
2023/10/09 15:57:54;;;;;;;20.45;4.55;;;;;;;;;;5073496;28;20128;-71
2023/10/09 16:00:21;;;;;;;17.60;5.03;;;;;;;;;;5055749;28;20041;-73
2023/10/09 16:02:48;;;;;;;17.50;4.53;;;;;;;;;;5054277;28;20037;-70
2023/10/09 16:05:16;;;;;;;;;;;;;;;;;;5054843;28;20048;-70
2023/10/09 16:07:42;;;;;;;16.20;4.55;;;;;;;;;;5053575;28;19920;-70
2023/10/09 16:10:09;;;;;;;17.77;3.78;;;;;;;;;;5053230;28;20501;-70
2023/10/09 16:12:39;;;;;;;15.73;3.80;;;;;;;;;;5052855;28;20047;-70
2023/10/09 16:15:06;;;;;;;12.05;3.40;;;;;;;;;;5057871;28;20045;-70
2023/10/09 16:17:37;;;;;;;13.75;3.80;;;;;;;;;;5052224;28;20049;-70
2023/10/09 16:20:13;;;;;;;11.93;3.55;;;;;;;;;;5052555;28;20124;-71
2023/10/09 16:22:39;;;;;;;12.38;3.58;;;;;;;;;;5052300;28;20091;-70
2023/10/09 16:25:09;;;;;;;16.13;4.00;;;;;;;;;;5052656;28;20056;-71
2023/10/09 16:27:35;;;;;;;20.45;3.58;;;;;;;;;;5051923;28;20295;-72
2023/10/09 16:30:05;;;;;;;16.05;4.00;;;;;;;;;;5051659;28;20044;-72
2023/10/09 16:32:31;;;;;;;17.90;4.07;;;;;;;;;;5055478;28;20048;-70
2023/10/09 16:35:02;;;;;;;21.30;4.20;;;;;;;;;;5072736;28;20048;-70
2023/10/09 16:37:28;;;;;;;26.25;4.70;;;;;;;;;;5072450;28;20451;-69
2023/10/09 16:39:54;;;;;;;17.85;4.50;;;;;;;;;;5071305;28;20424;-71
2023/10/09 16:42:23;;;;;;;16.90;4.47;;;;;;;;;;5072216;28;20079;-69
2023/10/09 16:44:50;;;;;;;17.25;4.50;;;;;;;;;;5071539;28;20070;-71
2023/10/09 16:47:19;;;;;;;24.92;4.47;;;;;;;;;;5072841;28;20051;-70
2023/10/09 16:49:51;;;;;;;17.17;4.53;;;;;;;;;;5071580;28;20053;-70
2023/10/09 16:52:17;;;;;;;18.15;4.18;;;;;;;;;;5072722;28;20400;-71
2023/10/09 16:54:44;;;;;;;21.67;5.10;;;;;;;;;;5054629;28;20044;-69
2023/10/09 16:57:10;;;;;;;19.35;4.07;;;;;;;;;;5053977;28;20055;-69